Upstream stations:
Downstream station:
SHEF ID: MRIT2 Lake Meredith
STATION TYPE: RESERVOIR
Flood Pool: Bottom = 2941.30, Top = 2965.00
ELEVATION STORAGE INFLOW RELEASE WIND-DIRWIND-SPEED
ft ac-ft cfs cfs deg mph
Ccp-Rev Ccp-Rev Rev-Regi Rev-Regi Ccp-Rev Ccp-Rev
(US/Central)
05/26 00:00 2883.35 202738 0 0 240.00 4.00
05/26 01:00 2883.33 202604 0 0 280.00 2.00
05/26 02:00 2883.32 202538 0 0 281.00 6.00
05/26 03:00 2883.30 202404 0 0 289.00 4.00
05/26 04:00 2883.33 202604 0 0 260.00 10.00
05/26 05:00 2883.29 202337 0 0 299.00 4.00
05/26 06:00 2883.29 202337 0 0 280.00 5.00
05/26 07:00 2883.24 202003 0 0 284.00 4.00
05/26 08:00 2883.30 202404 0 0 ---- ----
05/26 09:00 2883.28 202271 0 0 ---- ----
05/26 10:00 2883.29 202337 0 0 ---- ----
05/26 11:00 2883.28 202271 0 0 ---- ----
05/26 12:00 2883.27 202204 0 0 ---- ----
05/26 13:00 2883.26 202137 0 0 ---- ----
05/26 14:00 2883.29 202337 0 0 ---- ----
05/26 15:00 2883.29 202337 0 0 ---- ----
05/26 16:00 2883.32 202538 0 0 ---- ----
05/26 17:00 2883.31 202471 0 0 ---- ----
05/26 18:00 2883.31 202471 0 0 ---- ----
05/26 19:00 2883.30 202404 0 0 ---- ----
05/26 20:00 2883.31 202471 0 0 ---- ----
05/26 21:00 2883.30 202404 0 0 ---- ----
05/26 22:00 2883.30 202404 0 0 ---- ----
05/26 23:00 2883.29 202337 0 0 ---- ----